Akron Fulton International Airport
KAKR : now visible

Airfield :











YOU CAN JOIN US ON...

 
LOGIN :

Register | Disclaimer

   EN    FR    IT 

 









Legend :    VFR   Marginal VFR   IFR   Intensive IFR   Very Intensive IFR
Visi :
Ceiling :
>= 8 km
>= 3000ft
5 to 8 km
1000 to 3000 ft
1500m to 5 km
500 to 1000 ft
800 to 1500m
200 to 500 ft
< 800m
< 200 ft
Symbols :   Thunderstorms  Fog  Heavy snow  Heavy precipitations  Wind > 20 kt






- Airport Elevation : 1067 ft


KAKR - Akron Fulton International

CURRENT METAR :
  • 270154Z AUTO 24010KT 10SM OVC007 02/M01 A2982 RMK AO2 SNE16 SLP105 P0000 T00171006 $

EXPIRED METARs :
  • 270117Z AUTO 23010KT 5SM BR OVC007 02/M01 A2982 RMK AO2 SNE16 P0000 T00171006 $
  • 270054Z AUTO 23011KT 2SM -SN BR BKN007 OVC012 02/M01 A2983 RMK AO2 SLP108 P0000 T00171006 $
  • 270034Z AUTO 23011KT 2 1/2SM -SN BR OVC009 02/M01 A2983 RMK AO2 CIG 005V013 P0000 T00171006 $
  • 270027Z AUTO 24010KT 3SM -SN BR OVC010 02/M01 A2983 RMK AO2 CIG 006V013 P0000 T00171006 $
  • 262354Z AUTO 23012KT 2SM -SN BR OVC010 02/M01 A2983 RMK AO2 SLP109 P0000 60000 T00171006 10022 20017 53002 $

TAF N/A



MET'MAP, your aeronautical weather chart ! - Copyright ORBIFLY December 2007 - Disclaimer

ORBIFLY MET'MAP TEAM :

Programming & Development : Alexandra Zaïnal
Concept & original design : Baudouin d'Aumeries
Assistance for programming : Marc-Olivier Méhu
Technical & hardware support : Manuel Goepfert

Contact : metmap@orbifly.com




SOURCES & CREDITS :

   NOAA       Earth
Advisory